WZZ88FB LHBP-EKBI
Flight info
| Callsign | WZZ88FB |
|---|---|
| Flight time | 1h 44m |
| Altitude | 36000 |
| Route | BADOV DCT TURIS DCT MAKAL DCT REGLI DCT ATMEV DCT BINKA DCT SONAL DCT TUDLO L983 SIVSU DCT GELBA |
| Aircraft | A321/M-SDE1E2E3FGIJ1J4RWXY/LB1 |
Departure
| Time | 2026-05-06 17:21 |
|---|---|
| Airport | Budapest Liszt Ferenc International Airport (LHBP) |
Arrival
| Time | 2026-05-06 19:05 |
|---|---|
| Airport | Billund Airport (EKBI) |
| Time | Latitude | Longitude | Altitude | Speed | Heading |
|---|---|---|---|---|---|
| 2026-05-06 17:00 | 47.43513 | 19.25976 | 457 ft | 0 kts | 312° |
| 2026-05-06 17:15 | 47.43513 | 19.25975 | 457 ft | 0 kts | 312° |
| 2026-05-06 17:15 | 47.43516 | 19.25971 | 457 ft | 1 kts | 313° |
| 2026-05-06 17:15 | 47.43524 | 19.25958 | 456 ft | 2 kts | 311° |
| 2026-05-06 17:16 | 47.43537 | 19.25934 | 457 ft | 4 kts | 308° |
| 2026-05-06 17:16 | 47.43539 | 19.25898 | 457 ft | 4 kts | 255° |
| 2026-05-06 17:16 | 47.43521 | 19.25869 | 456 ft | 4 kts | 223° |
| 2026-05-06 17:16 | 47.43495 | 19.25833 | 457 ft | 6 kts | 224° |
| 2026-05-06 17:17 | 47.43464 | 19.25790 | 457 ft | 7 kts | 223° |
| 2026-05-06 17:17 | 47.43427 | 19.25740 | 457 ft | 8 kts | 223° |
| 2026-05-06 17:17 | 47.43384 | 19.25683 | 457 ft | 9 kts | 220° |
| 2026-05-06 17:17 | 47.43337 | 19.25621 | 456 ft | 10 kts | 222° |
| 2026-05-06 17:18 | 47.43297 | 19.25556 | 457 ft | 8 kts | 246° |
| 2026-05-06 17:18 | 47.43313 | 19.25483 | 457 ft | 8 kts | 305° |
| 2026-05-06 17:18 | 47.43339 | 19.25409 | 457 ft | 8 kts | 268° |
| 2026-05-06 17:18 | 47.43308 | 19.25335 | 457 ft | 9 kts | 228° |
| 2026-05-06 17:19 | 47.43260 | 19.25274 | 457 ft | 9 kts | 221° |
| 2026-05-06 17:19 | 47.43209 | 19.25205 | 457 ft | 10 kts | 224° |
| 2026-05-06 17:19 | 47.43154 | 19.25131 | 456 ft | 11 kts | 224° |
| 2026-05-06 17:19 | 47.43102 | 19.25045 | 457 ft | 12 kts | 244° |
| 2026-05-06 17:20 | 47.43110 | 19.24930 | 457 ft | 12 kts | 302° |
| 2026-05-06 17:20 | 47.43165 | 19.24838 | 456 ft | 10 kts | 313° |
| 2026-05-06 17:20 | 47.43171 | 19.24829 | 455 ft | 0 kts | 312° |
| 2026-05-06 17:20 | 47.43172 | 19.24827 | 456 ft | 4 kts | 312° |
| 2026-05-06 17:21 | 47.43355 | 19.24530 | 452 ft | 77 kts | 312° |
| 2026-05-06 17:21 | 47.43869 | 19.23701 | 456 ft | 139 kts | 312° |
| 2026-05-06 17:21 | 47.44629 | 19.22486 | 519 ft | 181 kts | 307° |
| 2026-05-06 17:21 | 47.45537 | 19.21155 | 1223 ft | 182 kts | 311° |
| 2026-05-06 17:22 | 47.46417 | 19.19838 | 2035 ft | 181 kts | 307° |
| 2026-05-06 17:22 | 47.47299 | 19.18384 | 2390 ft | 200 kts | 305° |
| 2026-05-06 17:22 | 47.48272 | 19.16761 | 2569 ft | 225 kts | 309° |
| 2026-05-06 17:22 | 47.49485 | 19.15083 | 2822 ft | 251 kts | 314° |
| 2026-05-06 17:23 | 47.50849 | 19.13377 | 3301 ft | 266 kts | 316° |
| 2026-05-06 17:23 | 47.52321 | 19.11611 | 4029 ft | 272 kts | 316° |
| 2026-05-06 17:23 | 47.53786 | 19.09865 | 4766 ft | 275 kts | 316° |
| 2026-05-06 17:23 | 47.55336 | 19.08195 | 5508 ft | 281 kts | 328° |
| 2026-05-06 17:24 | 47.57247 | 19.07407 | 6239 ft | 293 kts | 354° |
| 2026-05-06 17:24 | 47.59289 | 19.07856 | 6904 ft | 301 kts | 13° |
| 2026-05-06 17:24 | 47.61315 | 19.08674 | 7606 ft | 303 kts | 13° |
| 2026-05-06 17:24 | 47.63350 | 19.09510 | 8350 ft | 304 kts | 13° |
| 2026-05-06 17:25 | 47.65396 | 19.10353 | 9065 ft | 307 kts | 13° |
| 2026-05-06 17:25 | 47.67461 | 19.11202 | 9776 ft | 310 kts | 13° |
| 2026-05-06 17:25 | 47.69558 | 19.12060 | 10256 ft | 321 kts | 13° |
| 2026-05-06 17:25 | 47.71785 | 19.12966 | 10395 ft | 343 kts | 13° |
| 2026-05-06 17:26 | 47.74150 | 19.13926 | 10603 ft | 360 kts | 12° |
| 2026-05-06 17:26 | 47.76634 | 19.14508 | 11114 ft | 363 kts | 359° |
| 2026-05-06 17:26 | 47.79141 | 19.14183 | 11715 ft | 362 kts | 344° |
| 2026-05-06 17:26 | 47.81499 | 19.12932 | 12315 ft | 361 kts | 333° |
| 2026-05-06 17:27 | 47.83807 | 19.11428 | 12959 ft | 364 kts | 333° |
| 2026-05-06 17:27 | 47.86139 | 19.09910 | 13580 ft | 367 kts | 333° |
| 2026-05-06 17:27 | 47.88487 | 19.08381 | 14120 ft | 371 kts | 333° |
| 2026-05-06 17:27 | 47.90862 | 19.06831 | 14667 ft | 374 kts | 333° |
| 2026-05-06 17:28 | 47.93257 | 19.05262 | 15212 ft | 378 kts | 333° |
| 2026-05-06 17:28 | 47.95666 | 19.03678 | 15755 ft | 381 kts | 333° |
| 2026-05-06 17:28 | 47.98109 | 19.02071 | 16305 ft | 385 kts | 333° |
| 2026-05-06 17:28 | 48.00571 | 19.00454 | 16858 ft | 388 kts | 332° |
| 2026-05-06 17:29 | 48.03056 | 18.98822 | 17406 ft | 392 kts | 333° |
| 2026-05-06 17:29 | 48.05564 | 18.97169 | 17952 ft | 396 kts | 333° |
| 2026-05-06 17:29 | 48.08064 | 18.95519 | 18456 ft | 399 kts | 333° |
| 2026-05-06 17:29 | 48.10644 | 18.93810 | 18951 ft | 402 kts | 333° |
| 2026-05-06 17:30 | 48.13176 | 18.92136 | 19448 ft | 404 kts | 333° |
| 2026-05-06 17:30 | 48.15751 | 18.90436 | 19960 ft | 406 kts | 333° |
| 2026-05-06 17:30 | 48.18348 | 18.88719 | 20492 ft | 408 kts | 332° |
| 2026-05-06 17:30 | 48.20945 | 18.86995 | 21023 ft | 409 kts | 332° |
| 2026-05-06 17:31 | 48.23552 | 18.85258 | 21536 ft | 412 kts | 332° |
| 2026-05-06 17:31 | 48.26179 | 18.83507 | 22020 ft | 414 kts | 332° |
| 2026-05-06 17:31 | 48.28814 | 18.81749 | 22479 ft | 416 kts | 332° |
| 2026-05-06 17:31 | 48.31468 | 18.79977 | 22948 ft | 418 kts | 332° |
| 2026-05-06 17:32 | 48.34129 | 18.78199 | 23423 ft | 421 kts | 332° |
| 2026-05-06 17:32 | 48.36816 | 18.76408 | 23781 ft | 423 kts | 332° |
| 2026-05-06 17:32 | 48.39510 | 18.74607 | 24148 ft | 425 kts | 332° |
| 2026-05-06 17:32 | 48.42224 | 18.72787 | 24520 ft | 427 kts | 332° |
| 2026-05-06 17:33 | 48.44941 | 18.70964 | 24900 ft | 429 kts | 332° |
| 2026-05-06 17:33 | 48.47678 | 18.69126 | 25257 ft | 431 kts | 332° |
| 2026-05-06 17:33 | 48.50423 | 18.67281 | 25583 ft | 433 kts | 332° |
| 2026-05-06 17:33 | 48.53179 | 18.65427 | 25948 ft | 435 kts | 331° |
| 2026-05-06 17:34 | 48.55950 | 18.63565 | 26280 ft | 437 kts | 331° |
| 2026-05-06 17:34 | 48.58732 | 18.61692 | 26622 ft | 438 kts | 331° |
| 2026-05-06 17:34 | 48.61526 | 18.59806 | 26954 ft | 441 kts | 331° |
| 2026-05-06 17:34 | 48.64340 | 18.57906 | 27306 ft | 443 kts | 331° |
| 2026-05-06 17:35 | 48.67147 | 18.56005 | 27648 ft | 445 kts | 331° |
| 2026-05-06 17:35 | 48.69946 | 18.54105 | 27942 ft | 448 kts | 331° |
| 2026-05-06 17:35 | 48.72836 | 18.52143 | 28225 ft | 451 kts | 331° |
| 2026-05-06 17:36 | 48.78547 | 18.48258 | 28825 ft | 455 kts | 331° |
| 2026-05-06 17:36 | 48.81473 | 18.46266 | 29116 ft | 457 kts | 331° |
| 2026-05-06 17:36 | 48.84336 | 18.44311 | 29403 ft | 459 kts | 331° |
| 2026-05-06 17:36 | 48.87251 | 18.42318 | 29700 ft | 461 kts | 331° |
| 2026-05-06 17:37 | 48.90184 | 18.40310 | 29983 ft | 462 kts | 331° |
| 2026-05-06 17:37 | 48.93121 | 18.38294 | 30265 ft | 464 kts | 331° |
| 2026-05-06 17:37 | 48.96056 | 18.36286 | 30664 ft | 461 kts | 330° |
| 2026-05-06 17:37 | 48.98968 | 18.34295 | 31065 ft | 458 kts | 330° |
| 2026-05-06 17:38 | 49.01875 | 18.32301 | 31470 ft | 457 kts | 330° |
| 2026-05-06 17:38 | 49.04757 | 18.30313 | 31846 ft | 455 kts | 329° |
| 2026-05-06 17:38 | 49.07643 | 18.28319 | 32221 ft | 454 kts | 329° |
| 2026-05-06 17:38 | 49.10514 | 18.26335 | 32590 ft | 452 kts | 329° |
| 2026-05-06 17:39 | 49.13368 | 18.24364 | 32959 ft | 450 kts | 329° |
| 2026-05-06 17:39 | 49.16215 | 18.22397 | 33355 ft | 449 kts | 329° |
| 2026-05-06 17:39 | 49.19059 | 18.20429 | 33737 ft | 447 kts | 329° |
| 2026-05-06 17:39 | 49.21883 | 18.18476 | 34066 ft | 445 kts | 329° |
| 2026-05-06 17:40 | 49.24798 | 18.16827 | 34383 ft | 451 kts | 338° |
| 2026-05-06 17:40 | 49.27888 | 18.15836 | 34649 ft | 458 kts | 346° |
| 2026-05-06 17:40 | 49.31047 | 18.15167 | 34903 ft | 458 kts | 346° |
| 2026-05-06 17:40 | 49.34199 | 18.14507 | 35160 ft | 458 kts | 346° |
| 2026-05-06 17:41 | 49.37318 | 18.13852 | 35411 ft | 458 kts | 346° |
| 2026-05-06 17:41 | 49.40516 | 18.13174 | 35668 ft | 457 kts | 346° |
| 2026-05-06 17:41 | 49.43668 | 18.12496 | 35787 ft | 459 kts | 346° |
| 2026-05-06 17:41 | 49.46793 | 18.11815 | 35796 ft | 460 kts | 345° |
| 2026-05-06 17:42 | 49.53134 | 18.10433 | 35785 ft | 461 kts | 345° |
| 2026-05-06 17:42 | 49.59492 | 18.09062 | 35781 ft | 461 kts | 345° |
| 2026-05-06 17:43 | 49.65867 | 18.07687 | 35784 ft | 461 kts | 345° |
| 2026-05-06 17:43 | 49.72223 | 18.06302 | 35787 ft | 461 kts | 345° |
| 2026-05-06 17:44 | 49.78579 | 18.04914 | 35788 ft | 462 kts | 345° |
| 2026-05-06 17:44 | 49.84909 | 18.03537 | 35793 ft | 462 kts | 345° |
| 2026-05-06 17:45 | 49.91286 | 18.02142 | 35809 ft | 462 kts | 345° |
| 2026-05-06 17:45 | 49.97661 | 18.00740 | 35824 ft | 463 kts | 345° |
| 2026-05-06 17:46 | 50.03922 | 17.98783 | 35815 ft | 453 kts | 334° |
| 2026-05-06 17:46 | 50.09667 | 17.94966 | 35803 ft | 448 kts | 329° |
| 2026-05-06 17:47 | 50.15373 | 17.91007 | 35805 ft | 449 kts | 329° |
| 2026-05-06 17:47 | 50.21088 | 17.87056 | 35810 ft | 449 kts | 329° |
| 2026-05-06 17:48 | 50.26805 | 17.83092 | 35811 ft | 450 kts | 329° |
| 2026-05-06 17:48 | 50.32521 | 17.79102 | 35809 ft | 450 kts | 329° |
| 2026-05-06 17:49 | 50.38235 | 17.75092 | 35787 ft | 450 kts | 328° |
| 2026-05-06 17:49 | 50.43946 | 17.71082 | 35785 ft | 451 kts | 328° |
| 2026-05-06 17:50 | 50.49674 | 17.67050 | 35786 ft | 451 kts | 329° |
| 2026-05-06 17:50 | 50.55408 | 17.63017 | 35791 ft | 451 kts | 329° |
| 2026-05-06 17:51 | 50.61127 | 17.58963 | 35795 ft | 451 kts | 328° |
| 2026-05-06 17:51 | 50.66815 | 17.54916 | 35793 ft | 451 kts | 328° |
| 2026-05-06 17:52 | 50.72540 | 17.50824 | 35788 ft | 450 kts | 327° |
| 2026-05-06 17:52 | 50.77862 | 17.45840 | 35785 ft | 444 kts | 321° |
| 2026-05-06 17:53 | 50.83104 | 17.40666 | 35785 ft | 445 kts | 321° |
| 2026-05-06 17:53 | 50.88347 | 17.35469 | 35788 ft | 445 kts | 321° |
| 2026-05-06 17:54 | 50.93599 | 17.30261 | 35793 ft | 445 kts | 321° |
| 2026-05-06 17:54 | 50.98847 | 17.25056 | 35796 ft | 445 kts | 321° |
| 2026-05-06 17:55 | 51.04106 | 17.19815 | 35789 ft | 446 kts | 321° |
| 2026-05-06 17:55 | 51.09362 | 17.14566 | 35784 ft | 447 kts | 321° |
| 2026-05-06 17:56 | 51.14588 | 17.09323 | 35788 ft | 447 kts | 321° |
| 2026-05-06 17:56 | 51.19853 | 17.04028 | 35789 ft | 448 kts | 321° |
| 2026-05-06 17:57 | 51.24257 | 16.99584 | 35797 ft | 448 kts | 321° |
| 2026-05-06 17:57 | 51.30373 | 16.93396 | 35837 ft | 448 kts | 321° |
| 2026-05-06 17:58 | 51.34750 | 16.88970 | 35810 ft | 448 kts | 321° |
| 2026-05-06 17:58 | 51.40021 | 16.83633 | 35802 ft | 448 kts | 321° |
| 2026-05-06 17:59 | 51.45283 | 16.78282 | 35804 ft | 448 kts | 321° |
| 2026-05-06 17:59 | 51.50545 | 16.72903 | 35804 ft | 448 kts | 321° |
| 2026-05-06 18:00 | 51.55805 | 16.67511 | 35806 ft | 448 kts | 321° |
| 2026-05-06 18:00 | 51.61059 | 16.62115 | 35844 ft | 449 kts | 321° |
| 2026-05-06 18:01 | 51.66327 | 16.56697 | 35826 ft | 449 kts | 321° |
| 2026-05-06 18:01 | 51.71581 | 16.51267 | 35816 ft | 449 kts | 321° |
| 2026-05-06 18:02 | 51.76842 | 16.45805 | 35824 ft | 450 kts | 321° |
| 2026-05-06 18:02 | 51.82069 | 16.40370 | 35817 ft | 450 kts | 321° |
| 2026-05-06 18:03 | 51.87332 | 16.34899 | 35841 ft | 450 kts | 321° |
| 2026-05-06 18:03 | 51.92606 | 16.29393 | 35862 ft | 451 kts | 321° |
| 2026-05-06 18:04 | 51.97883 | 16.23861 | 35830 ft | 452 kts | 321° |
| 2026-05-06 18:04 | 52.03159 | 16.18320 | 35826 ft | 452 kts | 321° |
| 2026-05-06 18:05 | 52.08444 | 16.12762 | 35826 ft | 452 kts | 321° |
| 2026-05-06 18:05 | 52.13724 | 16.07189 | 35828 ft | 453 kts | 321° |
| 2026-05-06 18:06 | 52.18994 | 16.01610 | 35843 ft | 452 kts | 321° |
| 2026-05-06 18:06 | 52.24236 | 15.96042 | 35862 ft | 452 kts | 321° |
| 2026-05-06 18:07 | 52.29503 | 15.90421 | 35845 ft | 452 kts | 321° |
| 2026-05-06 18:07 | 52.34770 | 15.84790 | 35855 ft | 452 kts | 321° |
| 2026-05-06 18:08 | 52.40034 | 15.79147 | 35853 ft | 452 kts | 321° |
| 2026-05-06 18:08 | 52.45300 | 15.73486 | 35850 ft | 453 kts | 321° |
| 2026-05-06 18:09 | 52.50565 | 15.67818 | 35850 ft | 453 kts | 321° |
| 2026-05-06 18:09 | 52.55826 | 15.62139 | 35870 ft | 453 kts | 321° |
| 2026-05-06 18:10 | 52.61088 | 15.56439 | 35859 ft | 453 kts | 321° |
| 2026-05-06 18:10 | 52.66344 | 15.50707 | 35852 ft | 453 kts | 321° |
| 2026-05-06 18:11 | 52.71607 | 15.44967 | 35851 ft | 454 kts | 321° |
| 2026-05-06 18:11 | 52.76868 | 15.39217 | 35867 ft | 454 kts | 320° |
| 2026-05-06 18:12 | 52.82090 | 15.33477 | 35863 ft | 454 kts | 320° |
| 2026-05-06 18:12 | 52.87354 | 15.27700 | 35884 ft | 454 kts | 321° |
| 2026-05-06 18:13 | 52.92618 | 15.21903 | 35869 ft | 454 kts | 321° |
| 2026-05-06 18:13 | 52.97877 | 15.16077 | 35865 ft | 455 kts | 320° |
| 2026-05-06 18:14 | 53.03141 | 15.10229 | 35862 ft | 455 kts | 321° |
| 2026-05-06 18:14 | 53.08402 | 15.04374 | 35875 ft | 455 kts | 320° |
| 2026-05-06 18:15 | 53.13664 | 14.98495 | 35880 ft | 455 kts | 320° |
| 2026-05-06 18:15 | 53.18916 | 14.92608 | 35877 ft | 455 kts | 320° |
| 2026-05-06 18:16 | 53.24171 | 14.86708 | 35882 ft | 455 kts | 320° |
| 2026-05-06 18:16 | 53.29381 | 14.80830 | 35885 ft | 455 kts | 320° |
| 2026-05-06 18:17 | 53.34621 | 14.74908 | 35894 ft | 455 kts | 320° |
| 2026-05-06 18:17 | 53.39861 | 14.68975 | 35894 ft | 454 kts | 320° |
| 2026-05-06 18:18 | 53.45098 | 14.63015 | 35896 ft | 454 kts | 320° |
| 2026-05-06 18:18 | 53.50319 | 14.57060 | 35878 ft | 453 kts | 321° |
| 2026-05-06 18:19 | 53.55520 | 14.51126 | 35877 ft | 452 kts | 320° |
| 2026-05-06 18:19 | 53.60712 | 14.45169 | 35878 ft | 452 kts | 320° |
| 2026-05-06 18:20 | 53.65899 | 14.39195 | 35904 ft | 452 kts | 320° |
| 2026-05-06 18:20 | 53.71088 | 14.33206 | 35904 ft | 452 kts | 320° |
| 2026-05-06 18:21 | 53.76265 | 14.27185 | 35913 ft | 451 kts | 320° |
| 2026-05-06 18:21 | 53.81303 | 14.20886 | 35929 ft | 450 kts | 317° |
| 2026-05-06 18:22 | 53.86232 | 14.14359 | 35915 ft | 449 kts | 317° |
| 2026-05-06 18:22 | 53.91158 | 14.07839 | 35915 ft | 450 kts | 317° |
| 2026-05-06 18:23 | 53.96121 | 14.01359 | 35939 ft | 450 kts | 317° |
| 2026-05-06 18:23 | 54.01094 | 13.94893 | 35932 ft | 450 kts | 317° |
| 2026-05-06 18:24 | 54.06011 | 13.88449 | 35937 ft | 449 kts | 317° |
| 2026-05-06 18:24 | 54.10955 | 13.81929 | 35951 ft | 450 kts | 317° |
| 2026-05-06 18:25 | 54.15903 | 13.75394 | 35942 ft | 450 kts | 317° |
| 2026-05-06 18:25 | 54.20852 | 13.68853 | 35945 ft | 450 kts | 317° |
| 2026-05-06 18:26 | 54.25807 | 13.62286 | 35954 ft | 450 kts | 317° |
| 2026-05-06 18:26 | 54.30748 | 13.55701 | 35960 ft | 450 kts | 317° |
| 2026-05-06 18:27 | 54.35684 | 13.49104 | 35954 ft | 450 kts | 317° |
| 2026-05-06 18:27 | 54.40613 | 13.42490 | 35968 ft | 450 kts | 317° |
| 2026-05-06 18:28 | 54.45545 | 13.35867 | 35966 ft | 450 kts | 317° |
| 2026-05-06 18:28 | 54.50471 | 13.29225 | 35967 ft | 450 kts | 317° |
| 2026-05-06 18:29 | 54.55390 | 13.22557 | 35978 ft | 451 kts | 317° |
| 2026-05-06 18:29 | 54.60294 | 13.15908 | 35965 ft | 451 kts | 317° |
| 2026-05-06 18:30 | 54.62755 | 13.12560 | 35822 ft | 451 kts | 317° |
| 2026-05-06 18:30 | 54.65210 | 13.09212 | 35573 ft | 449 kts | 317° |
| 2026-05-06 18:30 | 54.67664 | 13.05863 | 35332 ft | 449 kts | 317° |
| 2026-05-06 18:30 | 54.70113 | 13.02516 | 35101 ft | 449 kts | 317° |
| 2026-05-06 18:31 | 54.72570 | 12.99158 | 34863 ft | 449 kts | 317° |
| 2026-05-06 18:31 | 54.75012 | 12.95813 | 34624 ft | 447 kts | 317° |
| 2026-05-06 18:31 | 54.77440 | 12.92474 | 34387 ft | 445 kts | 317° |
| 2026-05-06 18:31 | 54.79854 | 12.89140 | 34157 ft | 443 kts | 317° |
| 2026-05-06 18:32 | 54.82259 | 12.85818 | 33921 ft | 441 kts | 317° |
| 2026-05-06 18:32 | 54.84617 | 12.82447 | 33651 ft | 437 kts | 313° |
| 2026-05-06 18:32 | 54.86652 | 12.78603 | 33365 ft | 430 kts | 303° |
| 2026-05-06 18:32 | 54.88288 | 12.74315 | 33099 ft | 424 kts | 295° |
| 2026-05-06 18:33 | 54.89517 | 12.69694 | 32841 ft | 419 kts | 286° |
| 2026-05-06 18:33 | 54.90457 | 12.64920 | 32561 ft | 417 kts | 285° |
| 2026-05-06 18:33 | 54.91385 | 12.60161 | 32305 ft | 416 kts | 285° |
| 2026-05-06 18:33 | 54.92303 | 12.55474 | 32046 ft | 414 kts | 285° |
| 2026-05-06 18:34 | 54.93227 | 12.50748 | 31782 ft | 413 kts | 285° |
| 2026-05-06 18:34 | 54.94148 | 12.46030 | 31518 ft | 412 kts | 285° |
| 2026-05-06 18:34 | 54.95064 | 12.41308 | 31269 ft | 410 kts | 285° |
| 2026-05-06 18:34 | 54.95970 | 12.36609 | 31012 ft | 409 kts | 285° |
| 2026-05-06 18:35 | 54.96870 | 12.31924 | 30763 ft | 408 kts | 285° |
| 2026-05-06 18:35 | 54.97768 | 12.27241 | 30512 ft | 407 kts | 285° |
| 2026-05-06 18:35 | 54.98663 | 12.22562 | 30268 ft | 406 kts | 285° |
| 2026-05-06 18:35 | 54.99552 | 12.17904 | 30012 ft | 406 kts | 285° |
| 2026-05-06 18:36 | 55.00439 | 12.13238 | 29717 ft | 404 kts | 285° |
| 2026-05-06 18:36 | 55.01317 | 12.08611 | 29447 ft | 401 kts | 285° |
| 2026-05-06 18:36 | 55.02190 | 12.04021 | 29160 ft | 397 kts | 285° |
| 2026-05-06 18:36 | 55.03055 | 11.99463 | 28938 ft | 394 kts | 285° |
| 2026-05-06 18:37 | 55.03910 | 11.94930 | 28778 ft | 394 kts | 284° |
| 2026-05-06 18:37 | 55.04473 | 11.91937 | 28597 ft | 392 kts | 284° |
| 2026-05-06 18:37 | 55.05598 | 11.85916 | 28228 ft | 389 kts | 284° |
| 2026-05-06 18:37 | 55.06436 | 11.81441 | 27955 ft | 387 kts | 284° |
| 2026-05-06 18:38 | 55.07269 | 11.76996 | 27684 ft | 384 kts | 285° |
| 2026-05-06 18:38 | 55.08094 | 11.72582 | 27418 ft | 382 kts | 285° |
| 2026-05-06 18:38 | 55.08915 | 11.68185 | 27150 ft | 380 kts | 285° |
| 2026-05-06 18:38 | 55.09729 | 11.63808 | 26795 ft | 378 kts | 285° |
| 2026-05-06 18:39 | 55.10536 | 11.59447 | 26407 ft | 375 kts | 284° |
| 2026-05-06 18:39 | 55.11331 | 11.55131 | 26039 ft | 371 kts | 284° |
| 2026-05-06 18:39 | 55.12117 | 11.50862 | 25662 ft | 368 kts | 284° |
| 2026-05-06 18:40 | 55.13669 | 11.42422 | 24921 ft | 362 kts | 284° |
| 2026-05-06 18:40 | 55.14426 | 11.38279 | 24560 ft | 359 kts | 284° |
| 2026-05-06 18:40 | 55.15183 | 11.34129 | 24198 ft | 356 kts | 284° |
| 2026-05-06 18:40 | 55.15931 | 11.30014 | 23848 ft | 354 kts | 284° |
| 2026-05-06 18:41 | 55.16698 | 11.25945 | 23489 ft | 352 kts | 286° |
| 2026-05-06 18:41 | 55.17501 | 11.21907 | 23074 ft | 350 kts | 287° |
| 2026-05-06 18:41 | 55.18317 | 11.17913 | 22659 ft | 348 kts | 287° |
| 2026-05-06 18:41 | 55.19135 | 11.13946 | 22253 ft | 346 kts | 287° |
| 2026-05-06 18:42 | 55.19948 | 11.09989 | 21859 ft | 344 kts | 287° |
| 2026-05-06 18:42 | 55.20749 | 11.06050 | 21460 ft | 342 kts | 287° |
| 2026-05-06 18:42 | 55.21538 | 11.02137 | 21070 ft | 340 kts | 287° |
| 2026-05-06 18:42 | 55.22320 | 10.98239 | 20683 ft | 338 kts | 287° |
| 2026-05-06 18:43 | 55.23090 | 10.94362 | 20303 ft | 336 kts | 287° |
| 2026-05-06 18:43 | 55.23856 | 10.90500 | 19928 ft | 334 kts | 287° |
| 2026-05-06 18:43 | 55.24619 | 10.86659 | 19555 ft | 333 kts | 287° |
| 2026-05-06 18:43 | 55.25375 | 10.82842 | 19189 ft | 331 kts | 287° |
| 2026-05-06 18:44 | 55.26116 | 10.79094 | 18827 ft | 329 kts | 287° |
| 2026-05-06 18:44 | 55.26873 | 10.75258 | 18465 ft | 328 kts | 287° |
| 2026-05-06 18:44 | 55.27604 | 10.71543 | 18100 ft | 326 kts | 287° |
| 2026-05-06 18:44 | 55.28340 | 10.67797 | 17698 ft | 324 kts | 287° |
| 2026-05-06 18:45 | 55.29073 | 10.64062 | 17290 ft | 323 kts | 288° |
| 2026-05-06 18:45 | 55.29803 | 10.60346 | 16892 ft | 321 kts | 288° |
| 2026-05-06 18:45 | 55.30527 | 10.56642 | 16505 ft | 320 kts | 288° |
| 2026-05-06 18:45 | 55.31014 | 10.54145 | 16236 ft | 319 kts | 288° |
| 2026-05-06 18:46 | 55.31962 | 10.49286 | 15725 ft | 317 kts | 288° |
| 2026-05-06 18:46 | 55.32675 | 10.45620 | 15345 ft | 316 kts | 288° |
| 2026-05-06 18:46 | 55.33382 | 10.41978 | 14972 ft | 315 kts | 288° |
| 2026-05-06 18:46 | 55.34086 | 10.38347 | 14602 ft | 314 kts | 288° |
| 2026-05-06 18:47 | 55.34788 | 10.34723 | 14254 ft | 312 kts | 288° |
| 2026-05-06 18:47 | 55.35482 | 10.31132 | 13946 ft | 310 kts | 288° |
| 2026-05-06 18:47 | 55.36172 | 10.27549 | 13645 ft | 309 kts | 288° |
| 2026-05-06 18:47 | 55.36859 | 10.23971 | 13318 ft | 308 kts | 288° |
| 2026-05-06 18:48 | 55.37541 | 10.20403 | 12982 ft | 306 kts | 288° |
| 2026-05-06 18:48 | 55.38215 | 10.16871 | 12670 ft | 304 kts | 288° |
| 2026-05-06 18:48 | 55.38885 | 10.13358 | 12343 ft | 303 kts | 288° |
| 2026-05-06 18:48 | 55.39554 | 10.09853 | 12034 ft | 302 kts | 288° |
| 2026-05-06 18:49 | 55.40220 | 10.06363 | 11728 ft | 300 kts | 288° |
| 2026-05-06 18:49 | 55.40883 | 10.02878 | 11423 ft | 300 kts | 288° |
| 2026-05-06 18:49 | 55.41545 | 9.99397 | 11112 ft | 298 kts | 288° |
| 2026-05-06 18:49 | 55.42197 | 9.95964 | 10809 ft | 294 kts | 288° |
| 2026-05-06 18:50 | 55.42847 | 9.92539 | 10507 ft | 297 kts | 288° |
| 2026-05-06 18:50 | 55.43489 | 9.89149 | 10205 ft | 296 kts | 288° |
| 2026-05-06 18:50 | 55.44134 | 9.85731 | 9918 ft | 292 kts | 288° |
| 2026-05-06 18:50 | 55.44766 | 9.82358 | 9586 ft | 288 kts | 288° |
| 2026-05-06 18:51 | 55.45389 | 9.79036 | 9283 ft | 284 kts | 288° |
| 2026-05-06 18:51 | 55.46002 | 9.75757 | 8951 ft | 280 kts | 288° |
| 2026-05-06 18:51 | 55.46607 | 9.72520 | 8629 ft | 276 kts | 289° |
| 2026-05-06 18:51 | 55.47205 | 9.69321 | 8316 ft | 275 kts | 289° |
| 2026-05-06 18:52 | 55.47802 | 9.66133 | 7990 ft | 274 kts | 288° |
| 2026-05-06 18:52 | 55.48396 | 9.62942 | 7679 ft | 273 kts | 289° |
| 2026-05-06 18:52 | 55.48986 | 9.59774 | 7357 ft | 272 kts | 289° |
| 2026-05-06 18:52 | 55.49572 | 9.56608 | 7070 ft | 271 kts | 289° |
| 2026-05-06 18:53 | 55.50154 | 9.53452 | 6763 ft | 270 kts | 289° |
| 2026-05-06 18:53 | 55.50734 | 9.50305 | 6464 ft | 270 kts | 289° |
| 2026-05-06 18:53 | 55.51117 | 9.48225 | 6257 ft | 270 kts | 289° |
| 2026-05-06 18:53 | 55.51698 | 9.45071 | 5939 ft | 270 kts | 289° |
| 2026-05-06 18:54 | 55.52277 | 9.41932 | 5620 ft | 269 kts | 289° |
| 2026-05-06 18:54 | 55.52857 | 9.38798 | 5303 ft | 268 kts | 289° |
| 2026-05-06 18:54 | 55.53431 | 9.35682 | 5003 ft | 267 kts | 289° |
| 2026-05-06 18:54 | 55.54001 | 9.32578 | 4696 ft | 266 kts | 289° |
| 2026-05-06 18:55 | 55.54567 | 9.29472 | 4373 ft | 265 kts | 289° |
| 2026-05-06 18:55 | 55.55129 | 9.26388 | 4059 ft | 264 kts | 289° |
| 2026-05-06 18:55 | 55.55688 | 9.23307 | 3741 ft | 263 kts | 289° |
| 2026-05-06 18:55 | 55.56245 | 9.20238 | 3448 ft | 262 kts | 289° |
| 2026-05-06 18:56 | 55.56798 | 9.17205 | 3133 ft | 261 kts | 289° |
| 2026-05-06 18:56 | 55.57353 | 9.14155 | 3018 ft | 261 kts | 289° |
| 2026-05-06 18:56 | 55.57909 | 9.11092 | 3028 ft | 262 kts | 289° |
| 2026-05-06 18:56 | 55.58465 | 9.08017 | 3030 ft | 263 kts | 289° |
| 2026-05-06 18:57 | 55.59022 | 9.04942 | 3031 ft | 263 kts | 289° |
| 2026-05-06 18:57 | 55.59577 | 9.01867 | 3029 ft | 263 kts | 289° |
| 2026-05-06 18:57 | 55.60129 | 8.98792 | 3028 ft | 262 kts | 289° |
| 2026-05-06 18:57 | 55.60678 | 8.95709 | 3020 ft | 263 kts | 289° |
| 2026-05-06 18:58 | 55.61228 | 8.92612 | 3021 ft | 265 kts | 289° |
| 2026-05-06 18:58 | 55.61779 | 8.89514 | 3025 ft | 262 kts | 289° |
| 2026-05-06 18:58 | 55.62312 | 8.86523 | 3022 ft | 247 kts | 289° |
| 2026-05-06 18:58 | 55.62810 | 8.83733 | 3030 ft | 229 kts | 290° |
| 2026-05-06 18:59 | 55.63470 | 8.81271 | 3021 ft | 219 kts | 310° |
| 2026-05-06 18:59 | 55.64586 | 8.79502 | 3047 ft | 215 kts | 332° |
| 2026-05-06 18:59 | 55.65953 | 8.78634 | 3030 ft | 211 kts | 353° |
| 2026-05-06 18:59 | 55.67421 | 8.78759 | 3028 ft | 210 kts | 15° |
| 2026-05-06 19:00 | 55.68798 | 8.79496 | 3028 ft | 209 kts | 19° |
| 2026-05-06 19:00 | 55.70147 | 8.80213 | 3018 ft | 190 kts | 18° |
| 2026-05-06 19:00 | 55.71293 | 8.80978 | 3023 ft | 165 kts | 30° |
| 2026-05-06 19:00 | 55.72161 | 8.82198 | 3026 ft | 157 kts | 47° |
| 2026-05-06 19:01 | 55.72764 | 8.83802 | 3033 ft | 156 kts | 64° |
| 2026-05-06 19:01 | 55.73062 | 8.85638 | 3032 ft | 156 kts | 81° |
| 2026-05-06 19:01 | 55.73131 | 8.87550 | 3026 ft | 155 kts | 84° |
| 2026-05-06 19:01 | 55.73196 | 8.89453 | 2906 ft | 154 kts | 84° |
| 2026-05-06 19:02 | 55.73260 | 8.91349 | 2732 ft | 154 kts | 83° |
| 2026-05-06 19:02 | 55.73323 | 8.93237 | 2544 ft | 149 kts | 83° |
| 2026-05-06 19:02 | 55.73381 | 8.95011 | 2342 ft | 141 kts | 82° |
| 2026-05-06 19:02 | 55.73438 | 8.96737 | 2149 ft | 139 kts | 82° |
| 2026-05-06 19:03 | 55.73494 | 8.98443 | 1959 ft | 138 kts | 82° |
| 2026-05-06 19:03 | 55.73550 | 9.00150 | 1770 ft | 138 kts | 81° |
| 2026-05-06 19:03 | 55.73606 | 9.01848 | 1580 ft | 138 kts | 85° |
| 2026-05-06 19:03 | 55.73661 | 9.03549 | 1395 ft | 138 kts | 86° |
| 2026-05-06 19:04 | 55.73716 | 9.05262 | 1201 ft | 139 kts | 85° |
| 2026-05-06 19:04 | 55.73772 | 9.06980 | 999 ft | 140 kts | 85° |
| 2026-05-06 19:04 | 55.73827 | 9.08726 | 801 ft | 143 kts | 84° |
| 2026-05-06 19:04 | 55.73883 | 9.10489 | 576 ft | 144 kts | 86° |
| 2026-05-06 19:05 | 55.73940 | 9.12256 | 357 ft | 144 kts | 84° |
| 2026-05-06 19:05 | 55.73998 | 9.14024 | 224 ft | 141 kts | 84° |
| 2026-05-06 19:05 | 55.74044 | 9.15495 | 216 ft | 78 kts | 87° |
| 2026-05-06 19:05 | 55.74066 | 9.16157 | 216 ft | 46 kts | 87° |
| 2026-05-06 19:06 | 55.74080 | 9.16644 | 223 ft | 27 kts | 88° |
| 2026-05-06 19:06 | 55.74091 | 9.16854 | 218 ft | 13 kts | 69° |
| 2026-05-06 19:06 | 55.74169 | 9.16910 | 218 ft | 13 kts | 358° |
| 2026-05-06 19:06 | 55.74248 | 9.16866 | 219 ft | 9 kts | 287° |
| 2026-05-06 19:07 | 55.74250 | 9.16739 | 223 ft | 11 kts | 266° |
| 2026-05-06 19:07 | 55.74246 | 9.16595 | 216 ft | 13 kts | 268° |
| 2026-05-06 19:07 | 55.74242 | 9.16431 | 216 ft | 14 kts | 266° |
| 2026-05-06 19:07 | 55.74235 | 9.16249 | 224 ft | 15 kts | 266° |
| 2026-05-06 19:08 | 55.74229 | 9.16050 | 216 ft | 17 kts | 266° |
| 2026-05-06 19:08 | 55.74222 | 9.15840 | 223 ft | 18 kts | 268° |
| 2026-05-06 19:08 | 55.74215 | 9.15611 | 218 ft | 19 kts | 266° |
| 2026-05-06 19:08 | 55.74208 | 9.15364 | 216 ft | 21 kts | 267° |
| 2026-05-06 19:09 | 55.74202 | 9.15182 | 216 ft | 12 kts | 266° |
| 2026-05-06 19:09 | 55.74201 | 9.15054 | 216 ft | 10 kts | 280° |
| 2026-05-06 19:09 | 55.74257 | 9.14996 | 220 ft | 11 kts | 353° |
| 2026-05-06 19:09 | 55.74336 | 9.14987 | 218 ft | 12 kts | 356° |
| 2026-05-06 19:10 | 55.74425 | 9.14970 | 219 ft | 13 kts | 342° |
| 2026-05-06 19:10 | 55.74451 | 9.14865 | 216 ft | 4 kts | 270° |
| 2026-05-06 19:10 | 55.74461 | 9.14828 | 222 ft | 4 kts | 330° |
| 2026-05-06 19:10 | 55.74489 | 9.14819 | 219 ft | 4 kts | 354° |
| 2026-05-06 19:11 | 55.74508 | 9.14817 | 218 ft | 3 kts | 357° |
| 2026-05-06 19:11 | 55.74527 | 9.14816 | 218 ft | 2 kts | 357° |
| 2026-05-06 19:11 | 55.74529 | 9.14815 | 219 ft | 0 kts | 357° |